sensor_id;sensor_type;location;lat;lon;timestamp;temperature;humidity
24103;DHT22;12278;53.058;9.028;2023-02-15T00:03:40;4.10;99.90
24103;DHT22;12278;53.058;9.028;2023-02-15T00:07:40;4.00;99.90
24103;DHT22;12278;53.058;9.028;2023-02-15T00:11:41;4.10;99.90
24103;DHT22;12278;53.058;9.028;2023-02-15T00:15:50;4.20;99.90
24103;DHT22;12278;53.058;9.028;2023-02-15T00:19:50;4.30;99.90
24103;DHT22;12278;53.058;9.028;2023-02-15T00:23:51;4.30;99.90
24103;DHT22;12278;53.058;9.028;2023-02-15T00:27:52;3.90;99.90
24103;DHT22;12278;53.058;9.028;2023-02-15T00:31:52;3.90;99.90
24103;DHT22;12278;53.058;9.028;2023-02-15T00:35:57;3.70;99.90
24103;DHT22;12278;53.058;9.028;2023-02-15T00:39:58;3.50;99.90
24103;DHT22;12278;53.058;9.028;2023-02-15T00:43:59;3.50;99.90
24103;DHT22;12278;53.058;9.028;2023-02-15T00:47:59;3.50;99.90
24103;DHT22;12278;53.058;9.028;2023-02-15T00:52:00;3.30;99.90
24103;DHT22;12278;53.058;9.028;2023-02-15T00:56:00;3.30;99.90
24103;DHT22;12278;53.058;9.028;2023-02-15T01:00:01;3.30;99.90
24103;DHT22;12278;53.058;9.028;2023-02-15T01:04:02;3.30;99.90
24103;DHT22;12278;53.058;9.028;2023-02-15T01:08:03;3.20;99.90
24103;DHT22;12278;53.058;9.028;2023-02-15T01:12:14;3.20;99.90
24103;DHT22;12278;53.058;9.028;2023-02-15T01:16:16;3.20;99.90
24103;DHT22;12278;53.058;9.028;2023-02-15T01:20:20;3.30;99.90
24103;DHT22;12278;53.058;9.028;2023-02-15T01:24:21;3.10;99.90
24103;DHT22;12278;53.058;9.028;2023-02-15T01:28:22;3.00;99.90
24103;DHT22;12278;53.058;9.028;2023-02-15T01:32:23;3.10;99.90
24103;DHT22;12278;53.058;9.028;2023-02-15T01:36:24;2.80;99.90
24103;DHT22;12278;53.058;9.028;2023-02-15T01:40:26;2.90;99.90
24103;DHT22;12278;53.058;9.028;2023-02-15T01:48:48;2.90;99.90
24103;DHT22;12278;53.058;9.028;2023-02-15T01:57:12;2.90;99.90
24103;DHT22;12278;53.058;9.028;2023-02-15T02:01:13;2.70;99.90
24103;DHT22;12278;53.058;9.028;2023-02-15T02:05:14;2.90;99.90
24103;DHT22;12278;53.058;9.028;2023-02-15T02:09:28;2.70;99.90
24103;DHT22;12278;53.058;9.028;2023-02-15T02:13:29;2.50;99.90
24103;DHT22;12278;53.058;9.028;2023-02-15T02:26:09;2.60;99.90
24103;DHT22;12278;53.058;9.028;2023-02-15T02:30:41;2.40;99.90
24103;DHT22;12278;53.058;9.028;2023-02-15T02:34:54;2.50;99.90
24103;DHT22;12278;53.058;9.028;2023-02-15T02:47:23;2.20;99.90
24103;DHT22;12278;53.058;9.028;2023-02-15T02:51:27;2.10;99.90
24103;DHT22;12278;53.058;9.028;2023-02-15T02:55:51;2.10;99.90
24103;DHT22;12278;53.058;9.028;2023-02-15T02:59:55;2.20;99.90
24103;DHT22;12278;53.058;9.028;2023-02-15T03:04:06;2.20;99.90
24103;DHT22;12278;53.058;9.028;2023-02-15T03:08:11;2.20;99.90
24103;DHT22;12278;53.058;9.028;2023-02-15T03:12:51;2.20;99.90
24103;DHT22;12278;53.058;9.028;2023-02-15T03:16:47;2.30;99.90
24103;DHT22;12278;53.058;9.028;2023-02-15T03:20:49;2.40;99.90
24103;DHT22;12278;53.058;9.028;2023-02-15T03:24:57;2.30;99.90
24103;DHT22;12278;53.058;9.028;2023-02-15T03:29:04;1.90;99.90
24103;DHT22;12278;53.058;9.028;2023-02-15T03:33:06;2.10;99.90
24103;DHT22;12278;53.058;9.028;2023-02-15T03:37:28;2.10;99.90
24103;DHT22;12278;53.058;9.028;2023-02-15T03:41:37;2.00;99.90
24103;DHT22;12278;53.058;9.028;2023-02-15T03:45:40;1.70;99.90
24103;DHT22;12278;53.058;9.028;2023-02-15T03:50:19;2.00;99.90
24103;DHT22;12278;53.058;9.028;2023-02-15T03:54:39;2.10;99.90
24103;DHT22;12278;53.058;9.028;2023-02-15T03:58:44;2.20;99.90
24103;DHT22;12278;53.058;9.028;2023-02-15T04:07:24;2.10;99.90
24103;DHT22;12278;53.058;9.028;2023-02-15T04:11:25;1.90;99.90
24103;DHT22;12278;53.058;9.028;2023-02-15T04:15:25;2.00;99.90
24103;DHT22;12278;53.058;9.028;2023-02-15T04:19:44;2.10;99.90
24103;DHT22;12278;53.058;9.028;2023-02-15T04:24:19;2.00;99.90
24103;DHT22;12278;53.058;9.028;2023-02-15T04:28:38;2.00;99.90
24103;DHT22;12278;53.058;9.028;2023-02-15T04:32:38;2.00;99.90
24103;DHT22;12278;53.058;9.028;2023-02-15T04:36:40;2.20;99.90
24103;DHT22;12278;53.058;9.028;2023-02-15T04:40:40;2.20;99.90
24103;DHT22;12278;53.058;9.028;2023-02-15T04:44:41;2.10;99.90
24103;DHT22;12278;53.058;9.028;2023-02-15T04:48:42;2.20;99.90
24103;DHT22;12278;53.058;9.028;2023-02-15T04:52:44;2.10;99.90
24103;DHT22;12278;53.058;9.028;2023-02-15T04:56:44;1.90;99.90
24103;DHT22;12278;53.058;9.028;2023-02-15T05:00:45;1.90;99.90
24103;DHT22;12278;53.058;9.028;2023-02-15T05:04:46;2.00;99.90
24103;DHT22;12278;53.058;9.028;2023-02-15T05:08:46;1.80;99.90
24103;DHT22;12278;53.058;9.028;2023-02-15T05:12:47;1.80;99.90
24103;DHT22;12278;53.058;9.028;2023-02-15T05:16:48;1.70;99.90
24103;DHT22;12278;53.058;9.028;2023-02-15T05:20:49;1.50;99.90
24103;DHT22;12278;53.058;9.028;2023-02-15T05:24:49;1.80;99.90
24103;DHT22;12278;53.058;9.028;2023-02-15T05:29:09;1.70;99.90
24103;DHT22;12278;53.058;9.028;2023-02-15T05:33:09;1.60;99.90
24103;DHT22;12278;53.058;9.028;2023-02-15T05:37:24;1.50;99.90
24103;DHT22;12278;53.058;9.028;2023-02-15T05:41:26;1.50;99.90
24103;DHT22;12278;53.058;9.028;2023-02-15T05:45:27;1.60;99.90
24103;DHT22;12278;53.058;9.028;2023-02-15T05:49:27;1.60;99.90
24103;DHT22;12278;53.058;9.028;2023-02-15T05:53:29;1.60;99.90
24103;DHT22;12278;53.058;9.028;2023-02-15T05:57:30;1.40;99.90
24103;DHT22;12278;53.058;9.028;2023-02-15T06:01:31;1.40;99.90
24103;DHT22;12278;53.058;9.028;2023-02-15T06:05:31;1.20;99.90
24103;DHT22;12278;53.058;9.028;2023-02-15T06:09:32;0.90;99.90
24103;DHT22;12278;53.058;9.028;2023-02-15T06:13:34;1.00;99.90
24103;DHT22;12278;53.058;9.028;2023-02-15T06:17:35;1.10;99.90
24103;DHT22;12278;53.058;9.028;2023-02-15T06:21:35;1.20;99.90
24103;DHT22;12278;53.058;9.028;2023-02-15T06:25:36;1.30;99.90
24103;DHT22;12278;53.058;9.028;2023-02-15T06:29:36;1.30;99.90
24103;DHT22;12278;53.058;9.028;2023-02-15T06:33:37;1.20;99.90
24103;DHT22;12278;53.058;9.028;2023-02-15T06:37:38;1.20;99.90
24103;DHT22;12278;53.058;9.028;2023-02-15T06:41:39;1.30;99.90
24103;DHT22;12278;53.058;9.028;2023-02-15T06:45:41;1.20;99.90
24103;DHT22;12278;53.058;9.028;2023-02-15T06:49:41;1.30;99.90
24103;DHT22;12278;53.058;9.028;2023-02-15T06:53:42;1.30;99.90
24103;DHT22;12278;53.058;9.028;2023-02-15T06:57:43;1.30;99.90
24103;DHT22;12278;53.058;9.028;2023-02-15T07:01:43;1.10;99.90
24103;DHT22;12278;53.058;9.028;2023-02-15T07:05:44;1.10;99.90
24103;DHT22;12278;53.058;9.028;2023-02-15T07:09:45;1.20;99.90
24103;DHT22;12278;53.058;9.028;2023-02-15T07:13:47;1.00;99.90
24103;DHT22;12278;53.058;9.028;2023-02-15T07:17:48;1.10;99.90
24103;DHT22;12278;53.058;9.028;2023-02-15T07:21:49;1.30;99.90
24103;DHT22;12278;53.058;9.028;2023-02-15T07:25:57;1.40;99.90
24103;DHT22;12278;53.058;9.028;2023-02-15T07:29:58;1.40;99.90
24103;DHT22;12278;53.058;9.028;2023-02-15T07:33:58;1.40;99.90
24103;DHT22;12278;53.058;9.028;2023-02-15T07:37:59;1.50;99.90
24103;DHT22;12278;53.058;9.028;2023-02-15T07:42:00;1.70;99.90
24103;DHT22;12278;53.058;9.028;2023-02-15T07:46:06;1.80;99.90
24103;DHT22;12278;53.058;9.028;2023-02-15T07:50:10;1.80;99.90
24103;DHT22;12278;53.058;9.028;2023-02-15T07:54:10;1.90;99.90
24103;DHT22;12278;53.058;9.028;2023-02-15T07:58:11;2.00;99.90
24103;DHT22;12278;53.058;9.028;2023-02-15T08:02:12;2.10;99.90
24103;DHT22;12278;53.058;9.028;2023-02-15T08:06:12;2.10;99.90
24103;DHT22;12278;53.058;9.028;2023-02-15T08:10:13;2.00;99.90
24103;DHT22;12278;53.058;9.028;2023-02-15T08:14:34;2.00;99.90
24103;DHT22;12278;53.058;9.028;2023-02-15T08:18:35;2.70;99.90
24103;DHT22;12278;53.058;9.028;2023-02-15T08:22:36;3.00;99.90
24103;DHT22;12278;53.058;9.028;2023-02-15T08:26:37;4.00;99.90
24103;DHT22;12278;53.058;9.028;2023-02-15T08:30:39;4.90;99.90
24103;DHT22;12278;53.058;9.028;2023-02-15T08:34:41;5.90;99.90
24103;DHT22;12278;53.058;9.028;2023-02-15T08:38:42;6.40;99.90
24103;DHT22;12278;53.058;9.028;2023-02-15T08:42:43;6.80;99.90
24103;DHT22;12278;53.058;9.028;2023-02-15T08:46:45;6.50;99.90
24103;DHT22;12278;53.058;9.028;2023-02-15T08:50:46;6.30;99.90
24103;DHT22;12278;53.058;9.028;2023-02-15T08:54:46;7.10;99.90
24103;DHT22;12278;53.058;9.028;2023-02-15T08:58:47;7.40;99.90
24103;DHT22;12278;53.058;9.028;2023-02-15T09:02:47;7.60;99.90
24103;DHT22;12278;53.058;9.028;2023-02-15T09:06:48;7.60;99.90
24103;DHT22;12278;53.058;9.028;2023-02-15T09:10:50;6.20;99.90
24103;DHT22;12278;53.058;9.028;2023-02-15T09:14:50;5.60;99.90
24103;DHT22;12278;53.058;9.028;2023-02-15T09:18:51;5.80;99.90
24103;DHT22;12278;53.058;9.028;2023-02-15T09:22:52;5.90;99.90
24103;DHT22;12278;53.058;9.028;2023-02-15T09:26:54;5.80;99.90
24103;DHT22;12278;53.058;9.028;2023-02-15T09:30:55;6.00;99.90
24103;DHT22;12278;53.058;9.028;2023-02-15T09:34:56;5.80;99.90
24103;DHT22;12278;53.058;9.028;2023-02-15T09:48:05;6.60;99.90
24103;DHT22;12278;53.058;9.028;2023-02-15T09:56:30;6.60;99.90
24103;DHT22;12278;53.058;9.028;2023-02-15T10:00:44;6.80;99.90
24103;DHT22;12278;53.058;9.028;2023-02-15T10:05:15;6.50;99.90
24103;DHT22;12278;53.058;9.028;2023-02-15T10:18:36;7.90;99.90
24103;DHT22;12278;53.058;9.028;2023-02-15T10:23:13;8.00;99.90
24103;DHT22;12278;53.058;9.028;2023-02-15T10:27:21;8.20;99.90
24103;DHT22;12278;53.058;9.028;2023-02-15T10:31:35;7.70;99.90
24103;DHT22;12278;53.058;9.028;2023-02-15T10:35:51;8.40;99.90
24103;DHT22;12278;53.058;9.028;2023-02-15T10:52:59;9.50;99.90
24103;DHT22;12278;53.058;9.028;2023-02-15T10:57:46;9.90;99.90
24103;DHT22;12278;53.058;9.028;2023-02-15T11:02:04;9.40;99.90
24103;DHT22;12278;53.058;9.028;2023-02-15T11:06:13;9.30;99.90
24103;DHT22;12278;53.058;9.028;2023-02-15T11:15:00;10.90;99.90
24103;DHT22;12278;53.058;9.028;2023-02-15T11:19:17;11.10;99.90
24103;DHT22;12278;53.058;9.028;2023-02-15T11:23:20;11.30;99.90
24103;DHT22;12278;53.058;9.028;2023-02-15T11:31:23;10.90;99.90
24103;DHT22;12278;53.058;9.028;2023-02-15T11:35:36;12.10;99.90
24103;DHT22;12278;53.058;9.028;2023-02-15T11:39:38;13.00;99.90
24103;DHT22;12278;53.058;9.028;2023-02-15T11:47:45;12.00;99.90
24103;DHT22;12278;53.058;9.028;2023-02-15T11:51:45;12.90;99.90
24103;DHT22;12278;53.058;9.028;2023-02-15T11:55:48;12.60;99.90
24103;DHT22;12278;53.058;9.028;2023-02-15T12:04:34;13.70;99.90
24103;DHT22;12278;53.058;9.028;2023-02-15T12:08:42;14.30;99.90
24103;DHT22;12278;53.058;9.028;2023-02-15T12:12:44;14.40;99.90
24103;DHT22;12278;53.058;9.028;2023-02-15T12:16:50;14.30;99.90
24103;DHT22;12278;53.058;9.028;2023-02-15T12:20:51;13.50;99.90
24103;DHT22;12278;53.058;9.028;2023-02-15T12:24:55;13.40;99.90
24103;DHT22;12278;53.058;9.028;2023-02-15T12:28:59;12.20;99.90
24103;DHT22;12278;53.058;9.028;2023-02-15T12:37:09;13.40;99.90
24103;DHT22;12278;53.058;9.028;2023-02-15T12:41:22;13.80;99.90
24103;DHT22;12278;53.058;9.028;2023-02-15T12:49:26;12.80;99.90
24103;DHT22;12278;53.058;9.028;2023-02-15T12:53:33;12.50;99.90
24103;DHT22;12278;53.058;9.028;2023-02-15T12:57:34;12.60;99.90
24103;DHT22;12278;53.058;9.028;2023-02-15T13:01:36;12.60;99.90
24103;DHT22;12278;53.058;9.028;2023-02-15T13:05:40;12.60;99.90
24103;DHT22;12278;53.058;9.028;2023-02-15T13:09:42;12.70;99.90
24103;DHT22;12278;53.058;9.028;2023-02-15T13:13:55;12.80;99.90
24103;DHT22;12278;53.058;9.028;2023-02-15T13:17:58;12.50;99.90
24103;DHT22;12278;53.058;9.028;2023-02-15T13:22:06;12.50;99.90
24103;DHT22;12278;53.058;9.028;2023-02-15T13:26:14;12.80;99.90
24103;DHT22;12278;53.058;9.028;2023-02-15T13:30:26;12.60;99.90
24103;DHT22;12278;53.058;9.028;2023-02-15T13:34:33;12.80;99.90
24103;DHT22;12278;53.058;9.028;2023-02-15T13:39:13;13.00;99.90
24103;DHT22;12278;53.058;9.028;2023-02-15T13:43:47;13.50;99.90
24103;DHT22;12278;53.058;9.028;2023-02-15T13:52:58;12.90;99.90
24103;DHT22;12278;53.058;9.028;2023-02-15T14:01:36;12.70;99.90
24103;DHT22;12278;53.058;9.028;2023-02-15T14:09:51;13.60;99.90
24103;DHT22;12278;53.058;9.028;2023-02-15T14:22:35;13.90;99.90
24103;DHT22;12278;53.058;9.028;2023-02-15T14:26:47;13.80;99.90
24103;DHT22;12278;53.058;9.028;2023-02-15T14:30:49;14.90;99.90
24103;DHT22;12278;53.058;9.028;2023-02-15T14:34:57;16.00;99.90
24103;DHT22;12278;53.058;9.028;2023-02-15T14:48:48;15.60;99.90
24103;DHT22;12278;53.058;9.028;2023-02-15T14:52:17;14.50;99.90
24103;DHT22;12278;53.058;9.028;2023-02-15T14:56:21;14.60;99.90
24103;DHT22;12278;53.058;9.028;2023-02-15T15:00:36;14.30;99.90
24103;DHT22;12278;53.058;9.028;2023-02-15T15:04:41;13.50;99.90
24103;DHT22;12278;53.058;9.028;2023-02-15T15:08:43;12.90;99.90
24103;DHT22;12278;53.058;9.028;2023-02-15T15:16:49;11.90;99.90
24103;DHT22;12278;53.058;9.028;2023-02-15T15:20:51;11.40;99.90
24103;DHT22;12278;53.058;9.028;2023-02-15T15:29:39;11.00;99.90
24103;DHT22;12278;53.058;9.028;2023-02-15T15:51:31;10.20;99.90
24103;DHT22;12278;53.058;9.028;2023-02-15T15:55:33;10.00;99.90
24103;DHT22;12278;53.058;9.028;2023-02-15T15:59:34;9.90;99.90
24103;DHT22;12278;53.058;9.028;2023-02-15T16:03:35;9.80;99.90
24103;DHT22;12278;53.058;9.028;2023-02-15T16:07:36;9.60;99.90
24103;DHT22;12278;53.058;9.028;2023-02-15T16:11:37;9.40;99.90
24103;DHT22;12278;53.058;9.028;2023-02-15T16:15:45;9.40;99.90
24103;DHT22;12278;53.058;9.028;2023-02-15T16:19:50;9.40;99.90
24103;DHT22;12278;53.058;9.028;2023-02-15T16:27:55;9.10;99.90
24103;DHT22;12278;53.058;9.028;2023-02-15T16:32:02;8.80;99.90
24103;DHT22;12278;53.058;9.028;2023-02-15T16:36:04;8.80;99.90
24103;DHT22;12278;53.058;9.028;2023-02-15T16:40:41;8.50;99.90
24103;DHT22;12278;53.058;9.028;2023-02-15T16:44:45;8.40;99.90
24103;DHT22;12278;53.058;9.028;2023-02-15T16:48:46;8.30;99.90
24103;DHT22;12278;53.058;9.028;2023-02-15T16:52:49;8.30;99.90
24103;DHT22;12278;53.058;9.028;2023-02-15T16:56:50;8.20;99.90
24103;DHT22;12278;53.058;9.028;2023-02-15T17:00:51;8.10;99.90
24103;DHT22;12278;53.058;9.028;2023-02-15T17:05:16;8.00;99.90
24103;DHT22;12278;53.058;9.028;2023-02-15T17:18:32;7.80;99.90
24103;DHT22;12278;53.058;9.028;2023-02-15T17:22:34;7.80;99.90
24103;DHT22;12278;53.058;9.028;2023-02-15T17:26:42;7.80;99.90
24103;DHT22;12278;53.058;9.028;2023-02-15T17:30:49;7.60;99.90
24103;DHT22;12278;53.058;9.028;2023-02-15T17:39:21;7.50;99.90
24103;DHT22;12278;53.058;9.028;2023-02-15T17:43:25;7.50;99.90
24103;DHT22;12278;53.058;9.028;2023-02-15T17:47:26;7.50;99.90
24103;DHT22;12278;53.058;9.028;2023-02-15T17:51:30;7.40;99.90
24103;DHT22;12278;53.058;9.028;2023-02-15T17:55:33;7.30;99.90
24103;DHT22;12278;53.058;9.028;2023-02-15T17:59:46;7.30;99.90
24103;DHT22;12278;53.058;9.028;2023-02-15T18:04:14;7.30;99.90
24103;DHT22;12278;53.058;9.028;2023-02-15T18:08:33;7.30;99.90
24103;DHT22;12278;53.058;9.028;2023-02-15T18:12:53;7.20;99.90
24103;DHT22;12278;53.058;9.028;2023-02-15T18:16:54;7.20;99.90
24103;DHT22;12278;53.058;9.028;2023-02-15T18:20:54;7.10;99.90
24103;DHT22;12278;53.058;9.028;2023-02-15T18:24:55;7.30;99.90
24103;DHT22;12278;53.058;9.028;2023-02-15T18:28:57;7.30;99.90
24103;DHT22;12278;53.058;9.028;2023-02-15T18:33:02;7.20;99.90
24103;DHT22;12278;53.058;9.028;2023-02-15T18:37:05;7.30;99.90
24103;DHT22;12278;53.058;9.028;2023-02-15T18:41:16;7.30;99.90
24103;DHT22;12278;53.058;9.028;2023-02-15T18:45:25;7.20;99.90
24103;DHT22;12278;53.058;9.028;2023-02-15T18:49:29;7.10;99.90
24103;DHT22;12278;53.058;9.028;2023-02-15T18:53:29;7.10;99.90
24103;DHT22;12278;53.058;9.028;2023-02-15T18:57:30;7.00;99.90
24103;DHT22;12278;53.058;9.028;2023-02-15T19:01:33;7.00;99.90
24103;DHT22;12278;53.058;9.028;2023-02-15T19:05:34;7.00;99.90
24103;DHT22;12278;53.058;9.028;2023-02-15T19:09:37;6.80;99.90
24103;DHT22;12278;53.058;9.028;2023-02-15T19:13:49;6.90;99.90
24103;DHT22;12278;53.058;9.028;2023-02-15T19:17:59;6.90;99.90
24103;DHT22;12278;53.058;9.028;2023-02-15T19:22:01;7.00;99.90
24103;DHT22;12278;53.058;9.028;2023-02-15T19:26:01;7.00;99.90
24103;DHT22;12278;53.058;9.028;2023-02-15T19:30:12;7.00;99.90
24103;DHT22;12278;53.058;9.028;2023-02-15T19:34:18;7.00;99.90
24103;DHT22;12278;53.058;9.028;2023-02-15T19:38:26;6.70;99.90
24103;DHT22;12278;53.058;9.028;2023-02-15T19:42:37;6.60;99.90
24103;DHT22;12278;53.058;9.028;2023-02-15T19:46:38;6.60;99.90
24103;DHT22;12278;53.058;9.028;2023-02-15T19:50:39;6.50;99.90
24103;DHT22;12278;53.058;9.028;2023-02-15T19:54:46;6.40;99.90
24103;DHT22;12278;53.058;9.028;2023-02-15T19:58:47;6.30;99.90
24103;DHT22;12278;53.058;9.028;2023-02-15T20:02:54;6.20;99.90
24103;DHT22;12278;53.058;9.028;2023-02-15T20:06:59;6.10;99.90
24103;DHT22;12278;53.058;9.028;2023-02-15T20:11:00;6.10;99.90
24103;DHT22;12278;53.058;9.028;2023-02-15T20:15:04;6.20;99.90
24103;DHT22;12278;53.058;9.028;2023-02-15T20:19:10;6.10;99.90
24103;DHT22;12278;53.058;9.028;2023-02-15T20:23:33;6.00;99.90
24103;DHT22;12278;53.058;9.028;2023-02-15T20:27:34;6.10;99.90
24103;DHT22;12278;53.058;9.028;2023-02-15T20:31:36;6.00;99.90
24103;DHT22;12278;53.058;9.028;2023-02-15T20:35:39;6.10;99.90
24103;DHT22;12278;53.058;9.028;2023-02-15T20:39:42;6.00;99.90
24103;DHT22;12278;53.058;9.028;2023-02-15T20:43:44;6.00;99.90
24103;DHT22;12278;53.058;9.028;2023-02-15T20:47:46;6.10;99.90
24103;DHT22;12278;53.058;9.028;2023-02-15T20:51:49;6.00;99.90
24103;DHT22;12278;53.058;9.028;2023-02-15T20:55:50;6.00;99.90
24103;DHT22;12278;53.058;9.028;2023-02-15T20:59:52;6.10;99.90
24103;DHT22;12278;53.058;9.028;2023-02-15T21:03:53;6.00;99.90
24103;DHT22;12278;53.058;9.028;2023-02-15T21:07:53;6.10;99.90
24103;DHT22;12278;53.058;9.028;2023-02-15T21:11:57;6.00;99.90
24103;DHT22;12278;53.058;9.028;2023-02-15T21:15:58;5.90;99.90
24103;DHT22;12278;53.058;9.028;2023-02-15T21:20:04;5.80;99.90
24103;DHT22;12278;53.058;9.028;2023-02-15T21:24:28;5.90;99.90
24103;DHT22;12278;53.058;9.028;2023-02-15T21:28:32;5.80;99.90
24103;DHT22;12278;53.058;9.028;2023-02-15T21:32:33;5.80;99.90
24103;DHT22;12278;53.058;9.028;2023-02-15T21:36:41;5.80;99.90
24103;DHT22;12278;53.058;9.028;2023-02-15T21:40:42;5.80;99.90
24103;DHT22;12278;53.058;9.028;2023-02-15T21:44:43;5.60;99.90
24103;DHT22;12278;53.058;9.028;2023-02-15T21:49:04;5.60;99.90
24103;DHT22;12278;53.058;9.028;2023-02-15T21:53:13;5.60;99.90
24103;DHT22;12278;53.058;9.028;2023-02-15T21:57:16;5.40;99.90
24103;DHT22;12278;53.058;9.028;2023-02-15T22:01:21;5.40;99.90
24103;DHT22;12278;53.058;9.028;2023-02-15T22:05:28;5.30;99.90
24103;DHT22;12278;53.058;9.028;2023-02-15T22:09:29;5.20;99.90
24103;DHT22;12278;53.058;9.028;2023-02-15T22:13:33;5.30;99.90
24103;DHT22;12278;53.058;9.028;2023-02-15T22:17:34;5.20;99.90
24103;DHT22;12278;53.058;9.028;2023-02-15T22:21:38;5.30;99.90
24103;DHT22;12278;53.058;9.028;2023-02-15T22:25:38;5.20;99.90
24103;DHT22;12278;53.058;9.028;2023-02-15T22:29:39;5.10;99.90
24103;DHT22;12278;53.058;9.028;2023-02-15T22:33:42;5.10;99.90
24103;DHT22;12278;53.058;9.028;2023-02-15T22:37:47;4.90;99.90
24103;DHT22;12278;53.058;9.028;2023-02-15T22:41:47;4.80;99.90
24103;DHT22;12278;53.058;9.028;2023-02-15T22:45:48;4.70;99.90
24103;DHT22;12278;53.058;9.028;2023-02-15T22:49:49;4.70;99.90
24103;DHT22;12278;53.058;9.028;2023-02-15T22:53:51;4.70;99.90
24103;DHT22;12278;53.058;9.028;2023-02-15T22:57:54;4.60;99.90
24103;DHT22;12278;53.058;9.028;2023-02-15T23:01:55;4.50;99.90
24103;DHT22;12278;53.058;9.028;2023-02-15T23:05:56;4.50;99.90
24103;DHT22;12278;53.058;9.028;2023-02-15T23:09:57;4.50;99.90
24103;DHT22;12278;53.058;9.028;2023-02-15T23:14:00;4.30;99.90
24103;DHT22;12278;53.058;9.028;2023-02-15T23:18:17;4.30;99.90
24103;DHT22;12278;53.058;9.028;2023-02-15T23:22:18;4.30;99.90
24103;DHT22;12278;53.058;9.028;2023-02-15T23:26:26;4.50;99.90
24103;DHT22;12278;53.058;9.028;2023-02-15T23:30:27;4.50;99.90
24103;DHT22;12278;53.058;9.028;2023-02-15T23:34:28;4.50;99.90
24103;DHT22;12278;53.058;9.028;2023-02-15T23:38:34;4.60;99.90
24103;DHT22;12278;53.058;9.028;2023-02-15T23:42:34;4.70;99.90
24103;DHT22;12278;53.058;9.028;2023-02-15T23:46:46;4.60;99.90
24103;DHT22;12278;53.058;9.028;2023-02-15T23:50:47;4.70;99.90
24103;DHT22;12278;53.058;9.028;2023-02-15T23:54:48;4.60;99.90
24103;DHT22;12278;53.058;9.028;2023-02-15T23:58:50;4.60;99.90
